Angler Guide Weather for Qikiqtarjuaq -
Qikiqtarjuaq, Nunavut Current Weather Conditions
Enter your "Place, State", US Zip Code or ICAO:  
Forecast Information Radar Information
Qikiqtarjuaq, Nunavut, Canada  Lat: 67.00N, Lon: 64W
ICAO Used: CYVM
Current Conditions
Updated:
Sun & Moon Information:
Temp: N/A
Humidity: N/A
Wind Speed: N/A
Barometer: N/A
Dewpoint: N/A
Heat Index: N/A
Wind Chill: N/A
Civil Twilight: 6:28 AM EDT
Moonrise: 5:06 AM EDT Moon Phase:
Waning Crescent Moon
Waning Crescent Moon
Moonset: 5:05 PM EDT
Sunrise: 7:23 AM EDT
Sunset: 4:35 PM EDT
Civil Twilight: 5:31 PM EDT
Forecast for Qikiqtarjuaq, NU:
(Forecast based on TAF for )
0403 PM EDT MON NOV 06 2006
  
AFTERNOONEVENINGOVERNIGHT
PARTLY CLOUDYPARTLY CLOUDYPARTLY CLOUDY
Partly
Cloudy
Partly
Cloudy
Partly
Cloudy
TAF based forecast:
Dated: 0403 PM EDT MON NOV 06 2006
Afternoon...Partly cloudy with winds from the south at 9 mph. Possible periods of mostly cloudy.
Evening...Partly cloudy with winds from the south at 9 mph. Possible periods of mostly cloudy.
Overnight...Partly cloudy with winds from the south at 9 mph. Then becoming mostly cloudy. Possible periods of mostly cloudy.
Original Encoded TAF:
Dated: 0403 PM EDT MON NOV 06 2006
2006/11/06 20:03
CYVM 062003Z 062007 18008KT P6SM FEW040 TEMPO 2002 BKN020 BECMG 0204 BKN020=




Powered by Angler Guide.com
Copyright 2007, all rights reserved.